Time;durP1;ratioP1;P1;durP2;ratioP2;P2;SDS_P1;SDS_P2;PMS_P1;PMS_P2;Temp;Humidity;BMP_temperature;BMP_pressure;BME280_temperature;BME280_humidity;BME280_pressure;Samples;Min_cycle;Max_cycle;Signal;HPM_P1;HPM_P2
2023/08/20 00:03:41;;;;;;;15.52;14.02;;;19.90;99.90;;;;;;10241665;28;20238;-87
2023/08/20 00:08:44;;;;;;;18.17;13.52;;;19.80;99.90;;;;;;10240289;28;20250;-87
2023/08/20 00:13:47;;;;;;;17.08;15.18;;;19.80;99.90;;;;;;10240398;29;20288;-88
2023/08/20 00:18:49;;;;;;;12.85;11.65;;;19.70;99.90;;;;;;10256044;28;20285;-87
2023/08/20 00:23:52;;;;;;;17.70;13.52;;;19.70;99.90;;;;;;10320257;28;20795;-87
2023/08/20 00:28:55;;;;;;;13.00;11.63;;;19.60;99.90;;;;;;10295834;28;20246;-87
2023/08/20 00:33:57;;;;;;;17.45;13.75;;;19.60;99.90;;;;;;10239630;28;20672;-87
2023/08/20 00:39:09;;;;;;;15.00;12.32;;;19.50;99.90;;;;;;10239079;28;20234;-87
2023/08/20 00:44:12;;;;;;;13.30;12.07;;;19.50;99.90;;;;;;10238194;28;20234;-87
2023/08/20 00:49:16;;;;;;;11.93;10.82;;;19.50;99.90;;;;;;10242929;28;20237;-87
2023/08/20 00:54:20;;;;;;;12.43;10.63;;;19.60;99.90;;;;;;10239588;28;20270;-87
2023/08/20 00:59:23;;;;;;;12.95;11.65;;;19.60;99.90;;;;;;10239307;28;20380;-87
2023/08/20 01:04:27;;;;;;;13.48;12.07;;;19.50;99.90;;;;;;10239086;28;20869;-87
2023/08/20 01:09:42;;;;;;;16.80;13.77;;;19.40;99.90;;;;;;10250303;28;21012;-87
2023/08/20 01:14:45;;;;;;;14.13;12.57;;;19.40;99.90;;;;;;10237101;29;20268;-87
2023/08/20 01:19:48;;;;;;;15.93;11.50;;;19.40;99.90;;;;;;10251307;28;20241;-87
2023/08/20 01:25:27;;;;;;;12.32;11.05;;;19.40;99.90;;;;;;10246392;28;20322;-87
2023/08/20 01:30:31;;;;;;;12.90;11.57;;;19.40;99.90;;;;;;10252343;28;20280;-88
2023/08/20 01:35:33;;;;;;;13.60;10.88;;;19.30;99.90;;;;;;10268200;28;20298;-88
2023/08/20 01:40:47;;;;;;;13.95;12.52;;;19.40;99.90;;;;;;10279879;28;20242;-87
2023/08/20 01:45:50;;;;;;;12.98;11.80;;;19.30;99.90;;;;;;10263347;28;20690;-88
2023/08/20 01:50:53;;;;;;;15.50;13.90;;;19.20;99.90;;;;;;10280637;28;20241;-88
2023/08/20 01:55:55;;;;;;;14.32;12.93;;;19.20;99.90;;;;;;10277456;28;20291;-88
2023/08/20 02:00:58;;;;;;;13.75;12.45;;;19.10;99.90;;;;;;10277678;28;20245;-87
2023/08/20 02:06:01;;;;;;;16.00;13.27;;;19.10;99.90;;;;;;10278432;28;20243;-88
2023/08/20 02:11:04;;;;;;;15.95;14.30;;;19.20;99.90;;;;;;10280101;28;20259;-88
2023/08/20 02:16:07;;;;;;;14.90;13.40;;;19.10;99.90;;;;;;10278822;28;20273;-88
2023/08/20 02:21:10;;;;;;;15.23;13.63;;;19.10;99.90;;;;;;10253156;28;20295;-88
2023/08/20 02:26:12;;;;;;;14.85;13.02;;;19.00;99.90;;;;;;10266495;28;20270;-88
2023/08/20 02:31:15;;;;;;;13.48;12.02;;;19.00;99.90;;;;;;10238464;28;20408;-88
2023/08/20 02:36:18;;;;;;;20.85;14.05;;;19.00;99.90;;;;;;10238331;28;20265;-87
2023/08/20 02:41:20;;;;;;;14.85;13.35;;;19.00;99.90;;;;;;10239699;28;20643;-88
2023/08/20 02:46:23;;;;;;;15.63;12.30;;;18.90;99.90;;;;;;10246313;28;20306;-87
2023/08/20 02:51:25;;;;;;;12.38;11.07;;;18.90;99.90;;;;;;10246110;28;20226;-88
2023/08/20 02:56:29;;;;;;;13.23;11.85;;;18.90;99.90;;;;;;10244016;28;20275;-88
2023/08/20 03:01:32;;;;;;;14.50;12.07;;;18.80;99.90;;;;;;10228962;28;20242;-87
2023/08/20 03:06:35;;;;;;;14.30;12.63;;;18.90;99.90;;;;;;10244231;28;20241;-87
2023/08/20 03:11:37;;;;;;;13.93;12.52;;;18.70;99.90;;;;;;10243719;28;20295;-88
2023/08/20 03:16:40;;;;;;;14.15;12.15;;;18.60;99.90;;;;;;10244060;28;20667;-88
2023/08/20 03:21:43;;;;;;;13.32;11.05;;;18.60;99.90;;;;;;10244809;28;20307;-88
2023/08/20 03:26:47;;;;;;;13.13;11.82;;;18.60;99.90;;;;;;10271732;28;20720;-88
2023/08/20 03:31:50;;;;;;;12.38;10.82;;;18.60;99.90;;;;;;10285301;28;20225;-87
2023/08/20 03:36:53;;;;;;;11.93;10.75;;;18.60;99.90;;;;;;10283630;28;20265;-88
2023/08/20 03:41:57;;;;;;;12.68;10.90;;;18.50;99.90;;;;;;10284462;28;20230;-88
2023/08/20 03:47:00;;;;;;;15.02;11.15;;;18.50;99.90;;;;;;10283142;28;20237;-88
2023/08/20 03:52:02;;;;;;;11.73;10.73;;;18.40;99.90;;;;;;10250292;28;20295;-88
2023/08/20 03:57:05;;;;;;;12.00;10.90;;;18.40;99.90;;;;;;10244898;28;20257;-88
2023/08/20 04:02:07;;;;;;;10.85;9.80;;;18.50;99.90;;;;;;10284114;28;20194;-88
2023/08/20 04:07:10;;;;;;;12.18;10.90;;;18.80;99.90;;;;;;10281073;28;20287;-88
2023/08/20 04:12:12;;;;;;;20.10;14.23;;;19.10;99.90;;;;;;10282502;28;20701;-88
2023/08/20 04:17:15;;;;;;;15.95;12.77;;;19.10;99.90;;;;;;10282582;28;20269;-88
2023/08/20 04:22:17;;;;;;;13.68;12.27;;;18.90;99.90;;;;;;10266005;28;20647;-88
2023/08/20 04:27:20;;;;;;;14.73;13.02;;;18.90;99.90;;;;;;10281402;28;20315;-88
2023/08/20 04:32:23;;;;;;;11.73;10.63;;;19.00;99.90;;;;;;10248338;28;20697;-88
2023/08/20 04:37:25;;;;;;;15.35;13.43;;;19.00;99.90;;;;;;10262215;28;20781;-88
2023/08/20 04:42:28;;;;;;;15.63;12.90;;;19.10;99.90;;;;;;10281229;28;20249;-88
2023/08/20 04:47:31;;;;;;;14.75;13.02;;;19.30;99.90;;;;;;10260929;28;20696;-87
2023/08/20 04:52:35;;;;;;;13.85;12.45;;;19.30;99.90;;;;;;10242436;28;20679;-87
2023/08/20 04:57:37;;;;;;;13.00;11.23;;;19.40;99.90;;;;;;10281829;28;21057;-87
2023/08/20 05:02:40;;;;;;;13.07;11.77;;;19.50;99.90;;;;;;10280869;28;20279;-88
2023/08/20 05:07:46;;;;;;;11.52;10.35;;;19.70;99.90;;;;;;10280929;28;20214;-87
2023/08/20 05:12:49;;;;;;;12.80;11.60;;;19.90;99.90;;;;;;10280922;28;20304;-88
2023/08/20 05:17:51;;;;;;;16.65;12.73;;;20.00;99.90;;;;;;10280164;28;20653;-88
2023/08/20 05:22:54;;;;;;;14.75;13.23;;;20.10;99.90;;;;;;10243681;28;20234;-88
2023/08/20 05:27:57;;;;;;;15.77;14.07;;;20.30;99.90;;;;;;10277122;28;20237;-88
2023/08/20 05:33:00;;;;;;;13.32;11.93;;;20.50;99.90;;;;;;10242443;28;20230;-88
2023/08/20 05:38:09;;;;;;;16.67;15.00;;;20.60;99.90;;;;;;10286895;28;20265;-88
2023/08/20 05:43:12;;;;;;;11.85;10.65;;;20.90;99.90;;;;;;10280166;28;20198;-88
2023/08/20 05:48:16;;;;;;;11.50;10.45;;;21.10;99.90;;;;;;10247279;28;20207;-87
2023/08/20 05:53:19;;;;;;;17.83;13.73;;;21.30;99.90;;;;;;10245440;28;20225;-86
2023/08/20 05:58:22;;;;;;;30.00;22.70;;;21.60;99.90;;;;;;10241047;28;20650;-87
2023/08/20 06:03:24;;;;;;;16.27;14.57;;;21.80;99.90;;;;;;10265529;28;20229;-87
2023/08/20 06:08:27;;;;;;;10.88;9.77;;;22.00;99.90;;;;;;10248823;28;20260;-87
2023/08/20 06:13:30;;;;;;;45.10;35.22;;;22.30;99.90;;;;;;10240903;28;20300;-87
2023/08/20 06:18:32;;;;;;;29.80;23.77;;;22.50;99.90;;;;;;10243799;28;20234;-87
2023/08/20 06:23:35;;;;;;;27.08;23.52;;;22.80;99.90;;;;;;10239591;28;20350;-87
2023/08/20 06:28:45;;;;;;;13.13;11.82;;;22.90;99.90;;;;;;10267327;28;20677;-87
2023/08/20 06:33:48;;;;;;;25.42;20.45;;;23.20;99.90;;;;;;10271330;28;20672;-87
2023/08/20 06:38:50;;;;;;;14.68;13.15;;;23.40;99.90;;;;;;10282030;28;20229;-87
2023/08/20 06:43:53;;;;;;;29.45;24.17;;;23.70;99.90;;;;;;10276273;28;20307;-87
2023/08/20 06:48:55;;;;;;;19.83;15.85;;;24.10;99.90;;;;;;10267164;28;20260;-86
2023/08/20 06:53:58;;;;;;;27.75;23.77;;;24.20;99.90;;;;;;10265200;28;20805;-87
2023/08/20 06:59:04;;;;;;;39.38;29.65;;;24.50;99.90;;;;;;10264931;28;20700;-87
2023/08/20 07:04:06;;;;;;;37.35;31.55;;;24.70;99.90;;;;;;10259032;28;20237;-86
2023/08/20 07:09:09;;;;;;;36.10;29.15;;;24.90;99.90;;;;;;10253743;28;20291;-86
2023/08/20 07:14:11;;;;;;;33.47;27.08;;;25.10;99.90;;;;;;10245716;28;20311;-86
2023/08/20 07:19:14;;;;;;;34.92;26.80;;;25.20;99.90;;;;;;10245578;28;20272;-86
2023/08/20 07:24:16;;;;;;;29.05;25.70;;;25.40;99.90;;;;;;10258144;28;20564;-87
2023/08/20 07:29:19;;;;;;;31.65;24.63;;;25.50;99.90;;;;;;10253289;28;20215;-87
2023/08/20 07:34:21;;;;;;;9.70;8.75;;;25.80;99.90;;;;;;10258029;28;20257;-85
2023/08/20 07:39:24;;;;;;;35.17;24.65;;;26.00;99.90;;;;;;10273910;28;20205;-86
2023/08/20 07:44:27;;;;;;;30.58;22.45;;;26.20;99.90;;;;;;10268900;28;20677;-87
2023/08/20 07:49:30;;;;;;;27.20;23.38;;;26.40;99.90;;;;;;10286091;28;20202;-85
2023/08/20 07:54:32;;;;;;;21.38;17.27;;;26.50;99.90;;;;;;10276265;28;20256;-85
2023/08/20 07:59:35;;;;;;;25.15;20.83;;;26.70;98.40;;;;;;10284699;28;20206;-84
2023/08/20 08:04:38;;;;;;;21.30;19.10;;;26.80;99.90;;;;;;10285472;28;20241;-86
2023/08/20 08:09:40;;;;;;;20.73;17.73;;;27.00;99.10;;;;;;10282097;28;20249;-86
2023/08/20 08:14:43;;;;;;;22.10;15.90;;;27.20;95.70;;;;;;10263611;28;20273;-87
2023/08/20 08:19:46;;;;;;;16.25;14.10;;;27.40;95.20;;;;;;10261847;28;20299;-86
2023/08/20 08:24:54;;;;;;;15.32;13.80;;;27.60;93.30;;;;;;10392362;28;20280;-86
2023/08/20 08:29:57;;;;;;;15.88;13.35;;;27.70;92.40;;;;;;10491625;28;20249;-86
2023/08/20 08:34:59;;;;;;;16.77;14.65;;;27.70;91.40;;;;;;10297919;28;20253;-86
2023/08/20 08:40:06;;;;;;;18.58;15.27;;;27.80;91.90;;;;;;10275734;28;20762;-86
2023/08/20 08:45:09;;;;;;;22.52;16.27;;;27.90;92.10;;;;;;10269030;28;20234;-86
2023/08/20 08:50:12;;;;;;;19.63;17.63;;;28.20;92.60;;;;;;10393643;28;20295;-85
2023/08/20 08:55:15;;;;;;;18.88;16.70;;;28.20;92.60;;;;;;10316935;28;20712;-86
2023/08/20 09:00:17;;;;;;;18.02;16.05;;;28.30;92.90;;;;;;10277862;28;20230;-86
2023/08/20 09:05:19;;;;;;;18.75;16.88;;;28.40;92.80;;;;;;10266957;28;20237;-86
2023/08/20 09:10:25;;;;;;;17.50;15.80;;;28.40;90.90;;;;;;10281793;28;20264;-85
2023/08/20 09:15:33;;;;;;;17.48;14.85;;;28.40;90.10;;;;;;10370492;28;20261;-86
2023/08/20 09:20:37;;;;;;;15.65;14.15;;;28.40;88.20;;;;;;10258266;28;20258;-86
2023/08/20 09:25:40;;;;;;;17.17;15.45;;;28.40;88.60;;;;;;10403578;28;20257;-86
2023/08/20 09:30:55;;;;;;;15.68;13.88;;;28.20;87.60;;;;;;10436766;28;20294;-86
2023/08/20 09:35:57;;;;;;;14.05;12.65;;;28.30;89.20;;;;;;10260229;28;20256;-87
2023/08/20 09:41:02;;;;;;;18.50;16.63;;;28.30;88.30;;;;;;10253199;28;20701;-86
2023/08/20 09:46:05;;;;;;;7.95;7.15;;;28.20;87.10;;;;;;10263127;28;20271;-86
2023/08/20 09:51:12;;;;;;;16.73;14.60;;;28.20;83.80;;;;;;10251558;28;20252;-87
2023/08/20 09:56:27;;;;;;;14.00;12.68;;;28.10;89.40;;;;;;10239688;28;20258;-87
2023/08/20 10:01:30;;;;;;;7.78;7.07;;;28.00;86.50;;;;;;10250424;28;20229;-87
2023/08/20 10:06:35;;;;;;;7.78;7.07;;;28.10;84.70;;;;;;10239527;28;20254;-86
2023/08/20 10:11:37;;;;;;;15.32;13.73;;;27.80;81.90;;;;;;10238376;28;20238;-86
2023/08/20 10:16:40;;;;;;;13.20;11.90;;;27.70;86.90;;;;;;10238428;28;20296;-86
2023/08/20 10:21:46;;;;;;;11.93;10.80;;;27.90;91.00;;;;;;10243008;28;20282;-86
2023/08/20 10:27:07;;;;;;;12.07;10.75;;;28.00;90.60;;;;;;10256500;28;20262;-86
2023/08/20 10:32:11;;;;;;;16.58;14.52;;;28.00;91.30;;;;;;10264755;28;20233;-87
2023/08/20 10:37:14;;;;;;;17.58;15.75;;;27.80;91.00;;;;;;10264160;28;20311;-86
2023/08/20 10:42:19;;;;;;;18.60;15.98;;;27.80;90.90;;;;;;10238763;28;20287;-87
2023/08/20 10:47:22;;;;;;;17.02;15.10;;;27.90;91.20;;;;;;10249345;28;20299;-87
2023/08/20 10:52:25;;;;;;;20.23;17.20;;;28.00;91.40;;;;;;10274471;28;20242;-86
2023/08/20 10:57:33;;;;;;;20.20;15.95;;;28.20;92.70;;;;;;10244062;28;20331;-87
2023/08/20 11:02:42;;;;;;;16.25;13.73;;;28.30;90.40;;;;;;10242869;28;20264;-86
2023/08/20 11:07:48;;;;;;;16.15;14.55;;;28.40;92.20;;;;;;10245052;28;20628;-86
2023/08/20 11:12:52;;;;;;;14.50;12.95;;;28.30;89.00;;;;;;10231910;28;20241;-86
2023/08/20 11:17:54;;;;;;;13.88;12.57;;;28.20;88.00;;;;;;10247002;28;20362;-86
2023/08/20 11:22:57;;;;;;;15.10;12.93;;;28.30;82.50;;;;;;10244395;28;20260;-86
2023/08/20 11:27:59;;;;;;;15.57;14.15;;;28.50;80.90;;;;;;10244666;28;20646;-86
2023/08/20 11:33:02;;;;;;;13.93;12.50;;;28.60;83.30;;;;;;10257766;28;20237;-86
2023/08/20 11:38:06;;;;;;;11.93;10.82;;;28.60;83.40;;;;;;10244498;28;20671;-86
2023/08/20 11:43:09;;;;;;;16.67;14.88;;;28.70;85.00;;;;;;10242912;28;20249;-86
2023/08/20 11:48:12;;;;;;;16.17;14.48;;;28.50;84.30;;;;;;10244085;28;20628;-86
2023/08/20 11:53:15;;;;;;;15.20;13.68;;;28.60;83.70;;;;;;10249670;28;20676;-86
2023/08/20 11:58:19;;;;;;;15.90;14.30;;;28.50;83.60;;;;;;10258017;28;20296;-86
2023/08/20 12:03:22;;;;;;;18.15;15.65;;;28.50;80.00;;;;;;10244023;28;20617;-86
2023/08/20 12:08:25;;;;;;;14.93;13.57;;;28.50;84.60;;;;;;10257937;28;20256;-85
2023/08/20 12:13:28;;;;;;;16.35;13.93;;;28.60;81.50;;;;;;10242239;28;20269;-86
2023/08/20 12:18:30;;;;;;;16.40;14.80;;;28.70;84.80;;;;;;10253114;28;20254;-86
2023/08/20 12:23:33;;;;;;;14.82;12.88;;;28.70;81.00;;;;;;10241140;28;20732;-86
2023/08/20 12:28:36;;;;;;;16.08;14.13;;;28.70;82.40;;;;;;10254311;28;20697;-86
2023/08/20 12:33:38;;;;;;;14.52;12.60;;;28.90;81.30;;;;;;10242920;28;20311;-86
2023/08/20 12:38:41;;;;;;;14.63;13.20;;;28.90;79.40;;;;;;10269667;28;20310;-86
2023/08/20 12:43:44;;;;;;;15.18;13.52;;;28.90;78.50;;;;;;10280629;28;20226;-86
2023/08/20 12:48:46;;;;;;;13.93;12.52;;;28.70;78.00;;;;;;9932772;28;10000558;-86
2023/08/20 12:53:49;;;;;;;15.48;13.90;;;28.50;80.90;;;;;;10253096;28;20237;-86
2023/08/20 12:58:52;;;;;;;15.27;13.77;;;28.60;78.30;;;;;;10240966;28;20317;-86
2023/08/20 13:03:54;;;;;;;14.68;13.18;;;28.60;78.70;;;;;;10236651;28;20316;-86
2023/08/20 13:08:58;;;;;;;14.43;12.93;;;28.30;79.40;;;;;;10238303;28;20264;-86
2023/08/20 13:14:01;;;;;;;17.05;12.80;;;28.30;79.50;;;;;;10245555;28;20307;-86
2023/08/20 13:19:04;;;;;;;15.57;13.98;;;28.20;80.30;;;;;;10238894;28;20258;-86
2023/08/20 13:24:07;;;;;;;14.18;12.82;;;28.20;81.00;;;;;;10238106;28;20997;-86
2023/08/20 13:29:10;;;;;;;14.00;12.70;;;28.30;80.20;;;;;;10238024;28;20648;-85
2023/08/20 13:34:12;;;;;;;14.38;12.98;;;28.20;81.00;;;;;;10238093;28;20254;-86
2023/08/20 13:39:15;;;;;;;13.15;11.93;;;28.10;81.30;;;;;;10239595;28;20398;-86
2023/08/20 13:44:19;;;;;;;13.40;12.10;;;28.10;80.70;;;;;;10240148;28;21036;-86
2023/08/20 13:49:22;;;;;;;12.60;11.30;;;28.20;79.70;;;;;;10256267;28;20249;-86
2023/08/20 13:54:24;;;;;;;14.52;13.02;;;28.50;79.10;;;;;;10260733;28;20374;-86
2023/08/20 13:59:27;;;;;;;14.20;12.80;;;28.50;77.70;;;;;;10279330;28;20252;-86
2023/08/20 14:04:29;;;;;;;12.98;10.57;;;28.50;77.50;;;;;;10276724;28;20237;-87
2023/08/20 14:09:34;;;;;;;13.02;11.60;;;28.30;77.50;;;;;;10278858;28;20241;-87
2023/08/20 14:14:37;;;;;;;13.48;11.32;;;28.30;78.30;;;;;;10244516;28;20210;-87
2023/08/20 14:19:39;;;;;;;13.75;12.45;;;28.30;79.60;;;;;;10241016;28;20246;-86
2023/08/20 14:24:42;;;;;;;14.02;12.52;;;28.10;79.90;;;;;;10259272;28;20264;-86
2023/08/20 14:29:44;;;;;;;13.60;12.20;;;27.90;81.30;;;;;;10277691;28;20690;-86
2023/08/20 14:34:47;;;;;;;13.27;11.98;;;27.80;83.20;;;;;;10278135;28;20237;-86
2023/08/20 14:39:50;;;;;;;12.32;11.20;;;27.90;86.30;;;;;;10281178;28;20646;-86
2023/08/20 14:44:53;;;;;;;13.75;12.45;;;28.00;84.00;;;;;;10272224;28;20224;-86
2023/08/20 14:49:56;;;;;;;13.88;12.57;;;28.10;84.80;;;;;;10261508;28;20233;-86
2023/08/20 14:54:58;;;;;;;15.63;14.10;;;28.20;87.30;;;;;;10245815;28;20651;-86
2023/08/20 15:00:01;;;;;;;14.20;12.80;;;28.40;81.90;;;;;;10246224;28;20261;-86
2023/08/20 15:05:04;;;;;;;14.40;12.55;;;28.30;82.50;;;;;;10245386;28;20230;-86
2023/08/20 15:10:07;;;;;;;14.10;12.60;;;28.10;82.10;;;;;;10243967;28;20238;-87
2023/08/20 15:15:10;;;;;;;14.38;12.98;;;27.90;82.80;;;;;;10251808;28;20234;-87
2023/08/20 15:20:13;;;;;;;16.55;13.18;;;27.80;85.50;;;;;;10271317;28;20250;-87
2023/08/20 15:25:15;;;;;;;14.43;13.02;;;27.80;85.00;;;;;;10245299;28;20319;-86
2023/08/20 15:30:24;;;;;;;13.55;12.15;;;27.60;85.30;;;;;;10268597;28;20226;-87
2023/08/20 15:35:28;;;;;;;13.05;11.88;;;27.50;85.80;;;;;;10269046;28;20307;-87
2023/08/20 15:40:31;;;;;;;15.25;13.57;;;27.40;89.60;;;;;;10253184;28;20249;-87
2023/08/20 15:45:33;;;;;;;12.15;10.88;;;27.20;88.20;;;;;;10271798;28;20226;-87
2023/08/20 15:50:36;;;;;;;14.95;11.32;;;27.10;88.70;;;;;;10259603;28;20237;-87
2023/08/20 15:55:39;;;;;;;15.05;13.52;;;27.10;88.50;;;;;;10258124;28;20267;-87
2023/08/20 16:00:41;;;;;;;12.50;11.40;;;27.10;88.90;;;;;;10259113;28;20288;-87
2023/08/20 16:05:44;;;;;;;10.77;9.77;;;27.00;89.50;;;;;;10242073;28;20703;-88
2023/08/20 16:10:46;;;;;;;8.43;7.68;;;27.00;88.40;;;;;;10247556;28;20234;-87
2023/08/20 16:15:49;;;;;;;14.27;11.32;;;27.30;88.20;;;;;;10279665;28;20638;-87
2023/08/20 16:20:52;;;;;;;13.98;12.50;;;27.40;93.60;;;;;;10253574;28;20333;-87
2023/08/20 16:25:54;;;;;;;12.68;11.50;;;27.40;95.60;;;;;;10256639;28;20265;-88
2023/08/20 16:30:59;;;;;;;14.13;11.13;;;27.40;96.50;;;;;;10261172;28;20233;-87
2023/08/20 16:36:02;;;;;;;16.35;13.07;;;27.40;96.60;;;;;;10261929;28;20247;-88
2023/08/20 16:41:04;;;;;;;17.35;13.95;;;27.40;97.70;;;;;;10311682;28;20299;-88
2023/08/20 16:46:08;;;;;;;21.38;14.57;;;27.30;99.50;;;;;;10278865;28;20702;-88
2023/08/20 16:51:11;;;;;;;14.18;12.68;;;27.20;99.90;;;;;;10262731;28;20233;-88
2023/08/20 16:56:13;;;;;;;15.63;13.25;;;27.20;99.90;;;;;;10263963;28;20235;-88
2023/08/20 17:01:16;;;;;;;18.08;14.75;;;27.10;99.60;;;;;;10243114;28;20242;-88
2023/08/20 17:06:19;;;;;;;14.02;12.60;;;27.00;99.90;;;;;;10280879;28;20240;-88
2023/08/20 17:11:21;;;;;;;15.15;13.30;;;26.90;99.90;;;;;;10264361;28;20704;-88
2023/08/20 17:16:25;;;;;;;16.75;14.20;;;26.80;99.90;;;;;;10240823;28;20320;-88
2023/08/20 17:21:28;;;;;;;15.70;13.02;;;26.60;99.90;;;;;;10242083;28;20265;-88
2023/08/20 17:26:31;;;;;;;17.35;13.20;;;26.50;99.90;;;;;;10239577;28;20265;-87
2023/08/20 17:31:34;;;;;;;14.88;12.88;;;26.30;99.90;;;;;;10259435;28;20233;-88
2023/08/20 17:36:37;;;;;;;15.63;13.15;;;26.10;99.90;;;;;;10262767;28;20254;-87
2023/08/20 17:41:39;;;;;;;15.60;13.93;;;25.90;99.90;;;;;;10227260;28;20238;-86
2023/08/20 17:46:46;;;;;;;16.98;14.85;;;25.80;99.90;;;;;;10246430;28;20275;-85
2023/08/20 17:51:49;;;;;;;17.23;15.23;;;25.60;99.90;;;;;;10281142;28;20240;-85
2023/08/20 17:56:51;;;;;;;16.23;14.57;;;25.40;99.90;;;;;;10280046;28;20708;-85
2023/08/20 18:01:54;;;;;;;16.15;13.23;;;25.20;99.90;;;;;;10280435;28;20237;-85
2023/08/20 18:06:56;;;;;;;19.83;15.05;;;25.00;99.90;;;;;;10280839;28;20245;-85
2023/08/20 18:11:59;;;;;;;31.58;15.77;;;24.80;99.90;;;;;;10280015;28;20251;-85
2023/08/20 18:17:02;;;;;;;16.15;14.55;;;24.60;99.90;;;;;;10270592;28;20253;-85
2023/08/20 18:22:05;;;;;;;15.10;13.60;;;24.40;99.90;;;;;;10287407;28;20263;-85
2023/08/20 18:27:07;;;;;;;20.38;14.80;;;24.20;99.90;;;;;;10287116;28;20318;-85
2023/08/20 18:32:10;;;;;;;15.98;14.38;;;24.10;99.90;;;;;;10270090;28;20245;-85
2023/08/20 18:37:13;;;;;;;18.00;14.68;;;23.90;99.90;;;;;;10286972;28;20314;-85
2023/08/20 18:42:15;;;;;;;17.23;14.57;;;23.80;99.90;;;;;;10285554;28;20237;-85
2023/08/20 18:47:18;;;;;;;16.02;13.10;;;23.70;99.90;;;;;;10273450;28;20287;-86
2023/08/20 18:52:20;;;;;;;15.57;13.75;;;23.60;99.90;;;;;;10262466;28;20303;-86
2023/08/20 18:57:23;;;;;;;18.88;14.63;;;23.50;99.90;;;;;;10282366;28;20272;-86
2023/08/20 19:02:26;;;;;;;17.95;14.18;;;23.40;99.90;;;;;;10248871;28;20321;-85
2023/08/20 19:07:28;;;;;;;15.23;13.32;;;23.30;99.90;;;;;;10254504;28;20263;-86
2023/08/20 19:12:33;;;;;;;17.85;13.55;;;23.20;99.90;;;;;;10285951;28;20241;-85
2023/08/20 19:17:36;;;;;;;17.67;14.18;;;23.10;99.90;;;;;;10272257;28;20262;-84
2023/08/20 19:22:40;;;;;;;24.40;16.65;;;23.10;99.90;;;;;;10273536;28;20206;-83
2023/08/20 19:27:43;;;;;;;20.05;15.77;;;23.20;99.90;;;;;;10297318;28;20233;-84
2023/08/20 19:32:45;;;;;;;18.15;15.35;;;23.20;99.90;;;;;;10277076;28;20214;-84
2023/08/20 19:37:48;;;;;;;22.77;17.08;;;23.20;99.90;;;;;;10266416;28;20319;-84
2023/08/20 19:42:51;;;;;;;19.08;14.10;;;23.10;99.90;;;;;;10243030;28;20238;-85
2023/08/20 19:47:53;;;;;;;17.10;15.23;;;23.10;99.90;;;;;;10243198;28;20292;-85
2023/08/20 19:52:56;;;;;;;16.58;14.88;;;23.10;99.90;;;;;;10252996;28;20242;-84
2023/08/20 19:58:00;;;;;;;16.83;15.18;;;23.10;99.90;;;;;;10276540;28;20261;-84
2023/08/20 20:03:03;;;;;;;18.50;15.38;;;23.10;99.90;;;;;;10266100;28;20315;-84
2023/08/20 20:08:07;;;;;;;18.38;15.52;;;23.10;99.90;;;;;;10280906;28;20263;-84
2023/08/20 20:13:10;;;;;;;16.33;14.60;;;23.10;99.90;;;;;;10282358;28;21037;-85
2023/08/20 20:18:12;;;;;;;16.95;15.05;;;23.10;99.90;;;;;;10248378;28;20254;-86
2023/08/20 20:23:16;;;;;;;15.75;14.15;;;23.00;99.90;;;;;;10263423;28;20234;-86
2023/08/20 20:28:19;;;;;;;17.05;14.77;;;23.00;99.90;;;;;;10273890;28;20306;-85
2023/08/20 20:33:22;;;;;;;16.95;15.15;;;22.90;99.90;;;;;;10247220;28;20298;-85
2023/08/20 20:38:25;;;;;;;18.40;16.60;;;22.90;99.90;;;;;;10249779;28;20257;-86
2023/08/20 20:43:28;;;;;;;16.25;14.52;;;22.90;99.90;;;;;;10278505;28;20288;-85
2023/08/20 20:48:30;;;;;;;14.75;13.25;;;22.80;99.90;;;;;;10257701;28;20229;-85
2023/08/20 20:53:33;;;;;;;17.98;15.68;;;22.70;99.90;;;;;;10274426;28;20242;-86
2023/08/20 20:58:35;;;;;;;20.40;16.60;;;22.70;99.90;;;;;;10259721;28;20254;-86
2023/08/20 21:03:38;;;;;;;18.73;16.73;;;22.60;99.90;;;;;;10255539;28;20248;-86
2023/08/20 21:08:40;;;;;;;15.88;14.18;;;22.60;99.90;;;;;;10251408;28;20273;-86
2023/08/20 21:13:43;;;;;;;20.80;15.88;;;22.50;99.90;;;;;;10252230;28;20241;-85
2023/08/20 21:18:46;;;;;;;18.00;15.95;;;22.40;99.90;;;;;;10258870;28;20253;-85
2023/08/20 21:23:52;;;;;;;17.20;15.13;;;22.30;99.90;;;;;;10257262;28;20705;-85
2023/08/20 21:28:54;;;;;;;17.48;15.63;;;22.30;99.90;;;;;;10268058;28;20237;-86
2023/08/20 21:33:58;;;;;;;23.20;17.45;;;22.30;99.90;;;;;;10257682;28;20242;-86
2023/08/20 21:39:07;;;;;;;16.77;14.48;;;22.30;99.90;;;;;;10256832;28;20253;-86
2023/08/20 21:44:10;;;;;;;17.95;16.15;;;22.20;99.90;;;;;;10257820;28;20237;-85
2023/08/20 21:49:17;;;;;;;16.00;14.25;;;22.20;99.90;;;;;;10254317;28;20653;-86
2023/08/20 21:54:19;;;;;;;19.17;16.75;;;22.20;99.90;;;;;;10258916;28;20229;-86
2023/08/20 21:59:22;;;;;;;17.77;15.43;;;22.10;99.90;;;;;;10258637;28;20748;-85
2023/08/20 22:04:24;;;;;;;17.70;15.60;;;22.10;99.90;;;;;;10256441;28;20264;-86
2023/08/20 22:09:30;;;;;;;20.00;17.35;;;22.00;99.90;;;;;;10257587;28;20230;-85
2023/08/20 22:14:33;;;;;;;17.92;16.00;;;22.10;99.90;;;;;;10257572;28;20233;-85
2023/08/20 22:19:36;;;;;;;15.52;13.70;;;22.10;99.90;;;;;;10251424;28;20300;-86
2023/08/20 22:24:39;;;;;;;14.00;12.60;;;22.00;99.90;;;;;;10253389;28;20330;-86
2023/08/20 22:29:41;;;;;;;22.15;14.77;;;22.10;99.90;;;;;;10272599;28;20241;-86
2023/08/20 22:34:44;;;;;;;16.73;12.73;;;22.10;99.90;;;;;;10250283;28;20241;-86
2023/08/20 22:39:46;;;;;;;15.40;12.55;;;22.10;99.90;;;;;;10260219;28;20246;-86
2023/08/20 22:44:51;;;;;;;14.80;13.02;;;22.10;99.90;;;;;;10255904;28;20283;-86
2023/08/20 22:49:53;;;;;;;17.85;12.90;;;22.00;99.90;;;;;;10268648;28;20225;-85
2023/08/20 22:54:56;;;;;;;14.63;12.68;;;21.90;99.90;;;;;;10252194;28;20242;-86
2023/08/20 22:59:58;;;;;;;14.63;12.70;;;21.80;99.90;;;;;;10251485;28;20677;-86
2023/08/20 23:05:01;;;;;;;16.60;13.90;;;21.80;99.90;;;;;;10264747;28;20225;-86
2023/08/20 23:10:04;;;;;;;15.25;13.38;;;21.70;99.90;;;;;;10284030;28;20218;-86
2023/08/20 23:15:07;;;;;;;17.92;12.80;;;21.60;99.90;;;;;;10262698;28;20238;-86
2023/08/20 23:20:11;;;;;;;15.27;13.38;;;21.50;99.90;;;;;;10245830;28;20249;-86
2023/08/20 23:25:14;;;;;;;14.32;12.02;;;21.40;99.90;;;;;;10268221;28;20265;-85
2023/08/20 23:30:18;;;;;;;15.48;13.15;;;21.50;99.90;;;;;;10269072;28;20723;-86
2023/08/20 23:35:20;;;;;;;14.40;12.88;;;21.40;99.90;;;;;;10256114;28;20234;-86
2023/08/20 23:40:23;;;;;;;16.25;13.77;;;21.40;99.90;;;;;;10269307;28;20261;-86
2023/08/20 23:45:25;;;;;;;12.60;11.25;;;21.40;99.90;;;;;;10277731;28;20657;-86
2023/08/20 23:50:28;;;;;;;14.30;12.80;;;21.40;99.90;;;;;;10261412;28;20330;-86
2023/08/20 23:55:30;;;;;;;13.43;11.82;;;21.40;99.90;;;;;;10284107;28;20259;-86
